Portada
METAR-TAF:

METAR-TAF

Aeropuertos :

Kristianstad, Suecia

latitud: 55-55N, longitud: 014-05E, altitud: 23 m

Observación

El informe se hizo hace 18 minutos, a las 21:20 UTC
Viento 11 kt del oeste, variando entre oeste-suroeste y noroeste
Temperatura 5°C
Humedad 70%
Presión 1019 hPa
Visibilidad 10 km o más

METAR: ESMK 312120Z AUTO 27011KT 250V310 9999 SCT027/// OVC044/// 05/00 Q1019

Hora: 23:38 (21:38 UTC)

Pronóstico

El informe se hizo hace 10 horas y 38 minutos, a las 11:00 UTC
Pronóstico válido del 31 a las 12 UTC al 31 a las 15 UTC
Viento 10 kt del oeste-noroeste
Visibilidad 10 km o más
Escasas nubes a una altura de 4000 ft

TAF: ESMK 311100Z 3112/3115 29010KT 9999 FEW040

Observaciones y pronósticos meteorológicos de más de 4000 aeropuertos (mensajes METAR y TAF).

Los puntos amarillos y rojos representan las estaciones disponibles.

Ponga el ratón en el punto deseado para ver el nombre de la estación.

Haga clic para ver las observaciones y los pronósticos meteorológicos.

Para cambiar el mapa : haga clic en los botones verdes con una cruz de color negro para hacer un zoom, en el botón verde con un guión para alejar o en las flechas verdes para mapas adyacentes.


METAR-TAF: